sensor_id;sensor_type;location;lat;lon;timestamp;pressure;altitude;pressure_sealevel;temperature;humidity
79221;BME280;72175;52.118;5.406;2024-03-02T00:00:51;99854.22;;;12.98;63.49
79221;BME280;72175;52.118;5.406;2024-03-02T00:03:18;99856.66;;;12.99;63.83
79221;BME280;72175;52.118;5.406;2024-03-02T00:05:49;99857.72;;;12.98;63.58
79221;BME280;72175;52.118;5.406;2024-03-02T00:08:22;99858.53;;;12.99;63.40
79221;BME280;72175;52.118;5.406;2024-03-02T00:10:50;99863.00;;;12.98;63.75
79221;BME280;72175;52.118;5.406;2024-03-02T00:13:20;99855.22;;;12.96;63.70
79221;BME280;72175;52.118;5.406;2024-03-02T00:15:54;99860.34;;;12.98;63.56
79221;BME280;72175;52.118;5.406;2024-03-02T00:18:32;99870.16;;;12.98;63.60
79221;BME280;72175;52.118;5.406;2024-03-02T00:21:00;99880.78;;;12.98;63.22
79221;BME280;72175;52.118;5.406;2024-03-02T00:23:30;99881.59;;;12.98;63.97
79221;BME280;72175;52.118;5.406;2024-03-02T00:26:00;99908.16;;;12.98;63.51
79221;BME280;72175;52.118;5.406;2024-03-02T00:28:33;99902.84;;;12.98;63.73
79221;BME280;72175;52.118;5.406;2024-03-02T00:31:09;99911.81;;;12.97;63.70
79221;BME280;72175;52.118;5.406;2024-03-02T00:36:09;99937.53;;;12.96;63.52
79221;BME280;72175;52.118;5.406;2024-03-02T00:38:44;99939.19;;;12.98;63.78
79221;BME280;72175;52.118;5.406;2024-03-02T00:41:31;99946.34;;;12.97;63.80
79221;BME280;72175;52.118;5.406;2024-03-02T00:44:02;99966.56;;;12.98;63.46
79221;BME280;72175;52.118;5.406;2024-03-02T00:49:02;99974.72;;;12.96;63.69
79221;BME280;72175;52.118;5.406;2024-03-02T00:51:33;99965.75;;;12.98;63.74
79221;BME280;72175;52.118;5.406;2024-03-02T00:54:05;99963.09;;;12.98;63.46
79221;BME280;72175;52.118;5.406;2024-03-02T00:56:33;99956.13;;;12.96;63.52
79221;BME280;72175;52.118;5.406;2024-03-02T00:59:01;99979.19;;;12.96;63.66
79221;BME280;72175;52.118;5.406;2024-03-02T01:01:27;99979.19;;;12.96;63.55
79221;BME280;72175;52.118;5.406;2024-03-02T01:03:54;99965.09;;;12.95;63.42
79221;BME280;72175;52.118;5.406;2024-03-02T01:06:21;99977.38;;;12.96;63.43
79221;BME280;72175;52.118;5.406;2024-03-02T01:08:49;99974.72;;;12.96;63.65
79221;BME280;72175;52.118;5.406;2024-03-02T01:11:19;99974.88;;;12.95;63.59
79221;BME280;72175;52.118;5.406;2024-03-02T01:13:48;99985.34;;;12.96;63.67
79221;BME280;72175;52.118;5.406;2024-03-02T01:16:14;99985.50;;;12.95;63.37
79221;BME280;72175;52.118;5.406;2024-03-02T01:18:42;99980.03;;;12.96;63.74
79221;BME280;72175;52.118;5.406;2024-03-02T01:21:10;99959.78;;;12.95;63.42
79221;BME280;72175;52.118;5.406;2024-03-02T01:23:37;99972.22;;;12.95;63.61
79221;BME280;72175;52.118;5.406;2024-03-02T01:26:04;99984.50;;;12.96;63.33
79221;BME280;72175;52.118;5.406;2024-03-02T01:28:30;99989.81;;;12.96;63.38
79221;BME280;72175;52.118;5.406;2024-03-02T01:30:57;99992.47;;;12.96;63.68
79221;BME280;72175;52.118;5.406;2024-03-02T01:33:23;99987.34;;;12.94;63.31
79221;BME280;72175;52.118;5.406;2024-03-02T01:35:50;99984.69;;;12.94;63.63
79221;BME280;72175;52.118;5.406;2024-03-02T01:38:17;99981.03;;;12.95;63.63
79221;BME280;72175;52.118;5.406;2024-03-02T01:40:45;99994.31;;;12.95;63.59
79221;BME280;72175;52.118;5.406;2024-03-02T01:43:11;99990.81;;;12.95;63.50
79221;BME280;72175;52.118;5.406;2024-03-02T01:45:38;99990.00;;;12.94;63.42
79221;BME280;72175;52.118;5.406;2024-03-02T01:48:06;100000.63;;;12.94;63.35
79221;BME280;72175;52.118;5.406;2024-03-02T01:50:34;99995.31;;;12.94;63.43
79221;BME280;72175;52.118;5.406;2024-03-02T01:53:00;99999.63;;;12.95;63.79
79221;BME280;72175;52.118;5.406;2024-03-02T01:55:28;100000.63;;;12.94;63.85
79221;BME280;72175;52.118;5.406;2024-03-02T01:57:57;99996.13;;;12.95;63.48
79221;BME280;72175;52.118;5.406;2024-03-02T02:00:24;99997.13;;;12.94;63.32
79221;BME280;72175;52.118;5.406;2024-03-02T02:02:53;99986.50;;;12.94;63.59
79221;BME280;72175;52.118;5.406;2024-03-02T02:05:20;100000.63;;;12.94;63.39
79221;BME280;72175;52.118;5.406;2024-03-02T02:07:47;99987.34;;;12.94;63.40
79221;BME280;72175;52.118;5.406;2024-03-02T02:10:13;99989.16;;;12.94;63.42
79221;BME280;72175;52.118;5.406;2024-03-02T02:12:40;99997.13;;;12.94;63.31
79221;BME280;72175;52.118;5.406;2024-03-02T02:15:22;100005.91;;;12.94;63.63
79221;BME280;72175;52.118;5.406;2024-03-02T02:17:49;100005.09;;;12.94;63.40
79221;BME280;72175;52.118;5.406;2024-03-02T02:20:16;99999.78;;;12.94;63.32
79221;BME280;72175;52.118;5.406;2024-03-02T02:22:55;100001.63;;;12.93;63.52
79221;BME280;72175;52.118;5.406;2024-03-02T02:25:22;100006.91;;;12.93;63.59
79221;BME280;72175;52.118;5.406;2024-03-02T02:27:48;99994.47;;;12.94;63.41
79221;BME280;72175;52.118;5.406;2024-03-02T02:30:19;99988.34;;;12.93;63.32
79221;BME280;72175;52.118;5.406;2024-03-02T02:32:46;99992.81;;;12.93;63.30
79221;BME280;72175;52.118;5.406;2024-03-02T02:35:12;99986.69;;;12.92;63.57
79221;BME280;72175;52.118;5.406;2024-03-02T02:37:39;99985.69;;;12.93;63.55
79221;BME280;72175;52.118;5.406;2024-03-02T02:40:06;100007.91;;;12.92;63.58
79221;BME280;72175;52.118;5.406;2024-03-02T02:42:33;100012.41;;;12.92;63.33
79221;BME280;72175;52.118;5.406;2024-03-02T02:44:59;100002.63;;;12.92;63.06
79221;BME280;72175;52.118;5.406;2024-03-02T02:47:26;100007.09;;;12.92;63.74
79221;BME280;72175;52.118;5.406;2024-03-02T02:49:52;100004.44;;;12.92;63.29
79221;BME280;72175;52.118;5.406;2024-03-02T02:52:19;99997.31;;;12.92;63.35
79221;BME280;72175;52.118;5.406;2024-03-02T02:54:46;100000.94;;;12.91;63.38
79221;BME280;72175;52.118;5.406;2024-03-02T02:57:13;100004.44;;;12.92;63.59
79221;BME280;72175;52.118;5.406;2024-03-02T02:59:39;100015.06;;;12.92;63.59
79221;BME280;72175;52.118;5.406;2024-03-02T03:02:06;100013.22;;;12.92;63.57
79221;BME280;72175;52.118;5.406;2024-03-02T03:04:32;100012.41;;;12.92;63.67
79221;BME280;72175;52.118;5.406;2024-03-02T03:06:59;100015.06;;;12.92;63.65
79221;BME280;72175;52.118;5.406;2024-03-02T03:09:25;99999.28;;;12.90;63.59
79221;BME280;72175;52.118;5.406;2024-03-02T03:11:52;100002.78;;;12.91;63.45
79221;BME280;72175;52.118;5.406;2024-03-02T03:14:18;99995.66;;;12.91;63.33
79221;BME280;72175;52.118;5.406;2024-03-02T03:16:46;100010.75;;;12.91;63.66
79221;BME280;72175;52.118;5.406;2024-03-02T03:19:12;100006.25;;;12.91;63.34
79221;BME280;72175;52.118;5.406;2024-03-02T03:21:39;99998.28;;;12.91;63.52
79221;BME280;72175;52.118;5.406;2024-03-02T03:24:05;100006.44;;;12.90;63.30
79221;BME280;72175;52.118;5.406;2024-03-02T03:26:32;100010.75;;;12.91;63.26
79221;BME280;72175;52.118;5.406;2024-03-02T03:29:01;100015.22;;;12.90;63.20
79221;BME280;72175;52.118;5.406;2024-03-02T03:31:29;100012.56;;;12.90;63.44
79221;BME280;72175;52.118;5.406;2024-03-02T03:33:55;100020.53;;;12.90;63.50
79221;BME280;72175;52.118;5.406;2024-03-02T03:36:22;100024.84;;;12.91;63.33
79221;BME280;72175;52.118;5.406;2024-03-02T03:38:48;100016.06;;;12.91;63.29
79221;BME280;72175;52.118;5.406;2024-03-02T03:41:15;100023.19;;;12.90;63.31
79221;BME280;72175;52.118;5.406;2024-03-02T03:43:41;100017.06;;;12.90;63.36
79221;BME280;72175;52.118;5.406;2024-03-02T03:46:08;100021.53;;;12.89;63.57
79221;BME280;72175;52.118;5.406;2024-03-02T03:48:35;100019.72;;;12.90;63.32
79221;BME280;72175;52.118;5.406;2024-03-02T03:51:01;100033.00;;;12.90;63.55
79221;BME280;72175;52.118;5.406;2024-03-02T03:53:28;100024.19;;;12.89;63.34
79221;BME280;72175;52.118;5.406;2024-03-02T03:55:54;100026.84;;;12.89;63.51
79221;BME280;72175;52.118;5.406;2024-03-02T03:58:21;100019.06;;;12.88;63.20
79221;BME280;72175;52.118;5.406;2024-03-02T04:00:48;100021.53;;;12.89;63.36
79221;BME280;72175;52.118;5.406;2024-03-02T04:03:15;100028.69;;;12.89;63.42
79221;BME280;72175;52.118;5.406;2024-03-02T04:05:41;100020.72;;;12.89;63.32
79221;BME280;72175;52.118;5.406;2024-03-02T04:08:08;100031.34;;;12.89;63.51
79221;BME280;72175;52.118;5.406;2024-03-02T04:10:34;100028.69;;;12.89;63.38
79221;BME280;72175;52.118;5.406;2024-03-02T04:13:01;100035.81;;;12.88;63.42
79221;BME280;72175;52.118;5.406;2024-03-02T04:15:28;100036.81;;;12.87;63.23
79221;BME280;72175;52.118;5.406;2024-03-02T04:17:54;100041.13;;;12.88;63.26
79221;BME280;72175;52.118;5.406;2024-03-02T04:20:21;100045.44;;;12.89;63.35
79221;BME280;72175;52.118;5.406;2024-03-02T04:22:48;100039.47;;;12.87;63.30
79221;BME280;72175;52.118;5.406;2024-03-02T04:25:15;100045.59;;;12.88;63.25
79221;BME280;72175;52.118;5.406;2024-03-02T04:27:43;100041.28;;;12.87;63.36
79221;BME280;72175;52.118;5.406;2024-03-02T04:30:11;100045.59;;;12.88;63.43
79221;BME280;72175;52.118;5.406;2024-03-02T04:32:37;100040.28;;;12.88;63.26
79221;BME280;72175;52.118;5.406;2024-03-02T04:35:05;100049.25;;;12.87;63.47
79221;BME280;72175;52.118;5.406;2024-03-02T04:37:34;100047.44;;;12.87;63.13
79221;BME280;72175;52.118;5.406;2024-03-02T04:40:01;100055.41;;;12.87;63.49
79221;BME280;72175;52.118;5.406;2024-03-02T04:42:27;100054.56;;;12.87;63.50
79221;BME280;72175;52.118;5.406;2024-03-02T04:44:54;100052.75;;;12.87;63.42
79221;BME280;72175;52.118;5.406;2024-03-02T04:47:20;100062.53;;;12.87;63.52
79221;BME280;72175;52.118;5.406;2024-03-02T04:49:47;100067.00;;;12.86;63.29
79221;BME280;72175;52.118;5.406;2024-03-02T04:52:13;100067.00;;;12.86;63.48
79221;BME280;72175;52.118;5.406;2024-03-02T04:54:40;100079.28;;;12.87;63.40
79221;BME280;72175;52.118;5.406;2024-03-02T04:57:39;100070.50;;;12.87;63.31
79221;BME280;72175;52.118;5.406;2024-03-02T05:00:06;100075.16;;;12.85;63.27
79221;BME280;72175;52.118;5.406;2024-03-02T05:02:35;100080.28;;;12.86;63.26
79221;BME280;72175;52.118;5.406;2024-03-02T05:05:01;100078.63;;;12.85;63.44
79221;BME280;72175;52.118;5.406;2024-03-02T05:07:28;100082.13;;;12.86;63.16
79221;BME280;72175;52.118;5.406;2024-03-02T05:09:55;100076.81;;;12.86;63.22
79221;BME280;72175;52.118;5.406;2024-03-02T05:12:22;100083.94;;;12.85;63.50
79221;BME280;72175;52.118;5.406;2024-03-02T05:15:07;100082.13;;;12.86;63.46
79221;BME280;72175;52.118;5.406;2024-03-02T05:17:34;100089.25;;;12.85;63.12
79221;BME280;72175;52.118;5.406;2024-03-02T05:20:00;100082.13;;;12.86;63.54
79221;BME280;72175;52.118;5.406;2024-03-02T05:22:26;100085.75;;;12.85;63.29
79221;BME280;72175;52.118;5.406;2024-03-02T05:24:53;100088.41;;;12.85;63.38
79221;BME280;72175;52.118;5.406;2024-03-02T05:27:20;100088.41;;;12.85;63.26
79221;BME280;72175;52.118;5.406;2024-03-02T05:29:47;100091.06;;;12.85;63.28
79221;BME280;72175;52.118;5.406;2024-03-02T05:32:13;100090.25;;;12.84;63.60
79221;BME280;72175;52.118;5.406;2024-03-02T05:34:40;100097.38;;;12.84;63.62
79221;BME280;72175;52.118;5.406;2024-03-02T05:37:06;100090.25;;;12.84;63.46
79221;BME280;72175;52.118;5.406;2024-03-02T05:39:33;100092.91;;;12.84;63.31
79221;BME280;72175;52.118;5.406;2024-03-02T05:42:00;100087.59;;;12.84;63.12
79221;BME280;72175;52.118;5.406;2024-03-02T05:44:26;100080.63;;;12.83;63.35
79221;BME280;72175;52.118;5.406;2024-03-02T05:46:53;100079.78;;;12.83;63.17
79221;BME280;72175;52.118;5.406;2024-03-02T05:49:19;100086.75;;;12.84;63.15
79221;BME280;72175;52.118;5.406;2024-03-02T05:51:46;100091.25;;;12.83;63.24
79221;BME280;72175;52.118;5.406;2024-03-02T05:54:12;100090.41;;;12.83;63.16
79221;BME280;72175;52.118;5.406;2024-03-02T05:56:39;100093.91;;;12.83;63.55
79221;BME280;72175;52.118;5.406;2024-03-02T05:59:05;100101.88;;;12.83;63.56
79221;BME280;72175;52.118;5.406;2024-03-02T06:01:43;100106.34;;;12.83;63.64
79221;BME280;72175;52.118;5.406;2024-03-02T06:04:10;100103.69;;;12.83;63.31
79221;BME280;72175;52.118;5.406;2024-03-02T06:06:40;100105.56;;;12.82;63.43
79221;BME280;72175;52.118;5.406;2024-03-02T06:09:07;100112.69;;;12.82;63.46
79221;BME280;72175;52.118;5.406;2024-03-02T06:11:42;100118.00;;;12.82;63.39
79221;BME280;72175;52.118;5.406;2024-03-02T06:14:09;100121.47;;;12.82;63.25
79221;BME280;72175;52.118;5.406;2024-03-02T06:16:36;100126.78;;;12.82;63.33
79221;BME280;72175;52.118;5.406;2024-03-02T06:19:02;100121.47;;;12.82;63.05
79221;BME280;72175;52.118;5.406;2024-03-02T06:21:29;100115.34;;;12.82;63.39
79221;BME280;72175;52.118;5.406;2024-03-02T06:23:56;100123.31;;;12.82;63.17
79221;BME280;72175;52.118;5.406;2024-03-02T06:26:23;100128.63;;;12.82;63.06
79221;BME280;72175;52.118;5.406;2024-03-02T06:28:51;100130.44;;;12.81;63.20
79221;BME280;72175;52.118;5.406;2024-03-02T06:31:18;100132.09;;;12.82;63.30
79221;BME280;72175;52.118;5.406;2024-03-02T06:33:44;100135.75;;;12.81;63.37
79221;BME280;72175;52.118;5.406;2024-03-02T06:36:11;100137.56;;;12.81;63.54
79221;BME280;72175;52.118;5.406;2024-03-02T06:38:38;100142.88;;;12.81;63.35
79221;BME280;72175;52.118;5.406;2024-03-02T06:41:09;100138.56;;;12.80;63.33
79221;BME280;72175;52.118;5.406;2024-03-02T06:43:35;100151.69;;;12.81;63.42
79221;BME280;72175;52.118;5.406;2024-03-02T06:46:02;100147.38;;;12.80;63.20
79221;BME280;72175;52.118;5.406;2024-03-02T06:48:29;100149.03;;;12.81;63.35
79221;BME280;72175;52.118;5.406;2024-03-02T06:50:56;100151.69;;;12.81;63.16
79221;BME280;72175;52.118;5.406;2024-03-02T06:53:24;100149.03;;;12.81;63.29
79221;BME280;72175;52.118;5.406;2024-03-02T06:55:51;100144.72;;;12.80;63.28
79221;BME280;72175;52.118;5.406;2024-03-02T06:58:18;100150.03;;;12.80;63.06
79221;BME280;72175;52.118;5.406;2024-03-02T07:00:44;100146.53;;;12.80;63.11
79221;BME280;72175;52.118;5.406;2024-03-02T07:03:11;100151.69;;;12.81;63.29
79221;BME280;72175;52.118;5.406;2024-03-02T07:05:38;100138.56;;;12.80;63.17
79221;BME280;72175;52.118;5.406;2024-03-02T07:08:05;100142.06;;;12.80;62.96
79221;BME280;72175;52.118;5.406;2024-03-02T07:10:32;100145.72;;;12.79;63.21
79221;BME280;72175;52.118;5.406;2024-03-02T07:12:58;100151.84;;;12.80;63.13
79221;BME280;72175;52.118;5.406;2024-03-02T07:15:25;100151.00;;;12.79;62.92
79221;BME280;72175;52.118;5.406;2024-03-02T07:17:55;100147.53;;;12.79;63.27
79221;BME280;72175;52.118;5.406;2024-03-02T07:20:22;100147.53;;;12.79;63.07
79221;BME280;72175;52.118;5.406;2024-03-02T07:22:48;100149.19;;;12.80;63.33
79221;BME280;72175;52.118;5.406;2024-03-02T07:25:15;100148.34;;;12.79;63.18
79221;BME280;72175;52.118;5.406;2024-03-02T07:27:44;100154.66;;;12.78;63.32
79221;BME280;72175;52.118;5.406;2024-03-02T07:30:14;100155.50;;;12.79;63.18
79221;BME280;72175;52.118;5.406;2024-03-02T07:32:42;100160.81;;;12.79;63.25
79221;BME280;72175;52.118;5.406;2024-03-02T07:35:15;100162.63;;;12.78;63.20
79221;BME280;72175;52.118;5.406;2024-03-02T07:37:44;100167.94;;;12.78;63.27
79221;BME280;72175;52.118;5.406;2024-03-02T07:40:11;100167.94;;;12.78;62.93
79221;BME280;72175;52.118;5.406;2024-03-02T07:42:39;100168.78;;;12.79;63.39
79221;BME280;72175;52.118;5.406;2024-03-02T07:45:06;100167.94;;;12.78;63.39
79221;BME280;72175;52.118;5.406;2024-03-02T07:47:35;100169.75;;;12.78;63.30
79221;BME280;72175;52.118;5.406;2024-03-02T07:50:02;100172.41;;;12.78;63.14
79221;BME280;72175;52.118;5.406;2024-03-02T07:52:29;100173.25;;;12.78;63.27
79221;BME280;72175;52.118;5.406;2024-03-02T07:54:56;100170.59;;;12.78;63.08
79221;BME280;72175;52.118;5.406;2024-03-02T07:57:22;100178.56;;;12.78;63.21
79221;BME280;72175;52.118;5.406;2024-03-02T07:59:49;100177.72;;;12.78;62.98
79221;BME280;72175;52.118;5.406;2024-03-02T08:02:16;100179.56;;;12.77;63.22
79221;BME280;72175;52.118;5.406;2024-03-02T08:04:42;100183.03;;;12.78;63.25
79221;BME280;72175;52.118;5.406;2024-03-02T08:07:09;100183.03;;;12.78;62.93
79221;BME280;72175;52.118;5.406;2024-03-02T08:09:35;100181.22;;;12.78;62.98
79221;BME280;72175;52.118;5.406;2024-03-02T08:12:02;100193.66;;;12.78;63.32
79221;BME280;72175;52.118;5.406;2024-03-02T08:14:31;100192.81;;;12.77;63.06
79221;BME280;72175;52.118;5.406;2024-03-02T08:16:57;100186.69;;;12.77;63.26
79221;BME280;72175;52.118;5.406;2024-03-02T08:19:23;100197.31;;;12.77;63.22
79221;BME280;72175;52.118;5.406;2024-03-02T08:21:50;100196.31;;;12.78;63.24
79221;BME280;72175;52.118;5.406;2024-03-02T08:24:17;100195.47;;;12.77;63.31
79221;BME280;72175;52.118;5.406;2024-03-02T08:26:43;100191.16;;;12.76;63.02
79221;BME280;72175;52.118;5.406;2024-03-02T08:29:10;100192.00;;;12.77;63.17
79221;BME280;72175;52.118;5.406;2024-03-02T08:31:40;100192.00;;;12.77;63.20
79221;BME280;72175;52.118;5.406;2024-03-02T08:34:07;100190.34;;;12.76;62.98
79221;BME280;72175;52.118;5.406;2024-03-02T08:36:34;100191.16;;;12.76;63.06
79221;BME280;72175;52.118;5.406;2024-03-02T08:39:01;100192.00;;;12.77;63.03
79221;BME280;72175;52.118;5.406;2024-03-02T08:41:28;100191.16;;;12.76;63.00
79221;BME280;72175;52.118;5.406;2024-03-02T08:43:54;100198.31;;;12.76;63.17
79221;BME280;72175;52.118;5.406;2024-03-02T08:46:21;100201.78;;;12.76;63.21
79221;BME280;72175;52.118;5.406;2024-03-02T08:48:47;100198.31;;;12.76;63.22
79221;BME280;72175;52.118;5.406;2024-03-02T08:51:14;100196.47;;;12.76;63.19
79221;BME280;72175;52.118;5.406;2024-03-02T08:53:40;100191.16;;;12.76;63.05
79221;BME280;72175;52.118;5.406;2024-03-02T08:56:09;100193.81;;;12.76;62.95
79221;BME280;72175;52.118;5.406;2024-03-02T08:58:36;100187.69;;;12.76;63.20
79221;BME280;72175;52.118;5.406;2024-03-02T09:01:02;100195.66;;;12.76;63.31
79221;BME280;72175;52.118;5.406;2024-03-02T09:03:29;100198.31;;;12.76;63.12
79221;BME280;72175;52.118;5.406;2024-03-02T09:05:56;100193.00;;;12.76;63.06
79221;BME280;72175;52.118;5.406;2024-03-02T09:08:22;100196.63;;;12.75;63.02
79221;BME280;72175;52.118;5.406;2024-03-02T09:10:48;100205.44;;;12.75;62.91
79221;BME280;72175;52.118;5.406;2024-03-02T09:13:15;100200.97;;;12.76;62.96
79221;BME280;72175;52.118;5.406;2024-03-02T09:15:41;100195.66;;;12.76;62.89
79221;BME280;72175;52.118;5.406;2024-03-02T09:18:08;100196.63;;;12.75;63.01
79221;BME280;72175;52.118;5.406;2024-03-02T09:20:35;100196.63;;;12.75;62.91
79221;BME280;72175;52.118;5.406;2024-03-02T09:23:01;100206.25;;;12.76;62.88
79221;BME280;72175;52.118;5.406;2024-03-02T09:25:28;100196.63;;;12.75;63.13
79221;BME280;72175;52.118;5.406;2024-03-02T09:27:55;100196.63;;;12.75;62.96
79221;BME280;72175;52.118;5.406;2024-03-02T09:30:21;100195.81;;;12.74;62.97
79221;BME280;72175;52.118;5.406;2024-03-02T09:32:48;100208.09;;;12.75;62.89
79221;BME280;72175;52.118;5.406;2024-03-02T09:35:16;100208.09;;;12.75;62.88
79221;BME280;72175;52.118;5.406;2024-03-02T09:37:42;100203.78;;;12.74;62.96
79221;BME280;72175;52.118;5.406;2024-03-02T09:40:09;100207.25;;;12.75;63.15
79221;BME280;72175;52.118;5.406;2024-03-02T09:42:36;100203.78;;;12.74;62.97
79221;BME280;72175;52.118;5.406;2024-03-02T09:45:04;100216.06;;;12.75;63.04
79221;BME280;72175;52.118;5.406;2024-03-02T09:47:31;100217.06;;;12.74;63.08
79221;BME280;72175;52.118;5.406;2024-03-02T09:49:57;100207.25;;;12.75;63.04
79221;BME280;72175;52.118;5.406;2024-03-02T09:52:26;100207.25;;;12.75;63.03
79221;BME280;72175;52.118;5.406;2024-03-02T09:54:53;100217.06;;;12.74;63.02
79221;BME280;72175;52.118;5.406;2024-03-02T09:57:20;100213.41;;;12.75;62.87
79221;BME280;72175;52.118;5.406;2024-03-02T09:59:46;100216.88;;;12.76;62.98
79221;BME280;72175;52.118;5.406;2024-03-02T10:02:13;100221.19;;;12.77;63.12
79221;BME280;72175;52.118;5.406;2024-03-02T10:04:39;100220.38;;;12.76;63.05
79221;BME280;72175;52.118;5.406;2024-03-02T10:09:39;100216.56;;;12.79;62.74
79221;BME280;72175;52.118;5.406;2024-03-02T10:12:08;100215.56;;;12.80;63.03
79221;BME280;72175;52.118;5.406;2024-03-02T10:14:35;100219.03;;;12.80;62.98
79221;BME280;72175;52.118;5.406;2024-03-02T10:17:03;100218.88;;;12.82;62.87
79221;BME280;72175;52.118;5.406;2024-03-02T10:19:30;100207.22;;;12.83;62.71
79221;BME280;72175;52.118;5.406;2024-03-02T10:22:02;100212.22;;;12.86;62.77
79221;BME280;72175;52.118;5.406;2024-03-02T10:24:39;100209.72;;;12.84;63.15
79221;BME280;72175;52.118;5.406;2024-03-02T10:27:08;100222.00;;;12.85;63.02
79221;BME280;72175;52.118;5.406;2024-03-02T10:29:39;100210.38;;;12.86;63.05
79221;BME280;72175;52.118;5.406;2024-03-02T10:32:09;100216.53;;;12.87;62.93
79221;BME280;72175;52.118;5.406;2024-03-02T10:34:37;100211.06;;;12.88;62.75
79221;BME280;72175;52.118;5.406;2024-03-02T10:37:05;100203.91;;;12.89;63.06
79221;BME280;72175;52.118;5.406;2024-03-02T10:39:34;100201.09;;;12.90;62.88
79221;BME280;72175;52.118;5.406;2024-03-02T10:42:03;100205.56;;;12.90;62.79
79221;BME280;72175;52.118;5.406;2024-03-02T10:44:30;100193.97;;;12.91;62.62
79221;BME280;72175;52.118;5.406;2024-03-02T10:47:00;100193.78;;;12.92;62.69
79221;BME280;72175;52.118;5.406;2024-03-02T10:49:29;100191.13;;;12.92;62.95
79221;BME280;72175;52.118;5.406;2024-03-02T10:51:55;100183.16;;;12.92;62.69
79221;BME280;72175;52.118;5.406;2024-03-02T10:54:22;100178.53;;;12.94;62.56
79221;BME280;72175;52.118;5.406;2024-03-02T10:56:53;100175.03;;;12.94;63.01
79221;BME280;72175;52.118;5.406;2024-03-02T10:59:34;100171.38;;;12.95;62.76
79221;BME280;72175;52.118;5.406;2024-03-02T11:02:03;100168.56;;;12.96;62.82
79221;BME280;72175;52.118;5.406;2024-03-02T11:04:34;100172.22;;;12.95;62.62
79221;BME280;72175;52.118;5.406;2024-03-02T11:07:06;100171.22;;;12.96;62.91
79221;BME280;72175;52.118;5.406;2024-03-02T11:09:34;100170.38;;;12.96;62.67
79221;BME280;72175;52.118;5.406;2024-03-02T11:12:38;100174.88;;;12.95;62.51
79221;BME280;72175;52.118;5.406;2024-03-02T11:15:10;100184.31;;;12.98;62.62
79221;BME280;72175;52.118;5.406;2024-03-02T11:17:40;100181.69;;;12.98;62.67
79221;BME280;72175;52.118;5.406;2024-03-02T11:20:08;100185.16;;;12.99;62.55
79221;BME280;72175;52.118;5.406;2024-03-02T11:22:36;100175.34;;;12.99;62.55
79221;BME280;72175;52.118;5.406;2024-03-02T11:25:03;100185.97;;;12.99;62.73
79221;BME280;72175;52.118;5.406;2024-03-02T11:33:06;100183.97;;;13.01;62.64
79221;BME280;72175;52.118;5.406;2024-03-02T11:35:43;100178.81;;;13.00;62.65
79221;BME280;72175;52.118;5.406;2024-03-02T11:38:13;100177.81;;;13.01;62.51
79221;BME280;72175;52.118;5.406;2024-03-02T11:40:40;100167.19;;;13.01;62.80
79221;BME280;72175;52.118;5.406;2024-03-02T11:43:07;100168.19;;;13.00;62.86
79221;BME280;72175;52.118;5.406;2024-03-02T11:45:37;100165.53;;;13.00;62.56
79221;BME280;72175;52.118;5.406;2024-03-02T11:48:13;100164.72;;;12.99;62.63
79221;BME280;72175;52.118;5.406;2024-03-02T11:50:57;100157.56;;;13.00;62.69
79221;BME280;72175;52.118;5.406;2024-03-02T11:53:27;100159.41;;;12.99;62.88
79221;BME280;72175;52.118;5.406;2024-03-02T11:56:01;100154.09;;;12.99;62.81
79221;BME280;72175;52.118;5.406;2024-03-02T11:58:28;100148.78;;;12.99;62.53
79221;BME280;72175;52.118;5.406;2024-03-02T12:00:56;100152.47;;;12.98;62.79
79221;BME280;72175;52.118;5.406;2024-03-02T12:03:25;100155.94;;;12.99;62.44
79221;BME280;72175;52.118;5.406;2024-03-02T12:05:53;100152.47;;;12.98;62.90
79221;BME280;72175;52.118;5.406;2024-03-02T12:08:20;100149.81;;;12.98;62.86
79221;BME280;72175;52.118;5.406;2024-03-02T12:11:01;100148.16;;;12.97;62.66
79221;BME280;72175;52.118;5.406;2024-03-02T12:13:30;100140.19;;;12.97;62.72
79221;BME280;72175;52.118;5.406;2024-03-02T12:15:57;100128.72;;;12.96;62.79
79221;BME280;72175;52.118;5.406;2024-03-02T12:18:24;100129.56;;;12.97;63.01
79221;BME280;72175;52.118;5.406;2024-03-02T12:20:51;100131.56;;;12.95;62.95
79221;BME280;72175;52.118;5.406;2024-03-02T12:23:25;100119.94;;;12.96;62.61
79221;BME280;72175;52.118;5.406;2024-03-02T12:25:52;100122.59;;;12.96;62.80
79221;BME280;72175;52.118;5.406;2024-03-02T12:28:19;100135.03;;;12.95;62.97
79221;BME280;72175;52.118;5.406;2024-03-02T12:30:46;100123.59;;;12.95;62.89
79221;BME280;72175;52.118;5.406;2024-03-02T12:33:14;100116.44;;;12.95;62.82
79221;BME280;72175;52.118;5.406;2024-03-02T12:35:41;100115.63;;;12.95;63.03
79221;BME280;72175;52.118;5.406;2024-03-02T12:38:07;100115.78;;;12.93;62.85
79221;BME280;72175;52.118;5.406;2024-03-02T12:40:34;100121.75;;;12.95;63.02
79221;BME280;72175;52.118;5.406;2024-03-02T12:43:04;100114.78;;;12.94;63.05
79221;BME280;72175;52.118;5.406;2024-03-02T12:45:31;100104.16;;;12.94;63.02
79221;BME280;72175;52.118;5.406;2024-03-02T12:48:00;100109.47;;;12.94;62.75
79221;BME280;72175;52.118;5.406;2024-03-02T12:50:26;100095.38;;;12.94;62.96
79221;BME280;72175;52.118;5.406;2024-03-02T12:52:54;100096.19;;;12.94;63.08
79221;BME280;72175;52.118;5.406;2024-03-02T12:55:22;100089.25;;;12.93;62.88
79221;BME280;72175;52.118;5.406;2024-03-02T12:57:50;100078.63;;;12.93;62.97
79221;BME280;72175;52.118;5.406;2024-03-02T13:00:19;100085.59;;;12.94;62.68
79221;BME280;72175;52.118;5.406;2024-03-02T13:02:49;100090.72;;;12.96;62.79
79221;BME280;72175;52.118;5.406;2024-03-02T13:05:17;100086.59;;;12.93;62.65
79221;BME280;72175;52.118;5.406;2024-03-02T13:07:43;100090.06;;;12.94;63.12
79221;BME280;72175;52.118;5.406;2024-03-02T13:10:12;100091.91;;;12.93;62.80